Time;durP1;ratioP1;P1;durP2;ratioP2;P2;SDS_P1;SDS_P2;PMS_P1;PMS_P2;Temp;Humidity;BMP_temperature;BMP_pressure;BME280_temperature;BME280_humidity;BME280_pressure;Samples;Min_cycle;Max_cycle;Signal;HPM_P1;HPM_P2
2021/11/18 00:00:18;;;;;;;20.65;11.50;;;;;;;;;;5092991;28;20113;-71
2021/11/18 00:02:44;;;;;;;18.40;10.77;;;;;;;;;;5093339;28;20020;-71
2021/11/18 00:05:12;;;;;;;16.63;9.82;;;;;;;;;;5093406;28;20056;-71
2021/11/18 00:07:42;;;;;;;19.85;10.80;;;;;;;;;;5092959;28;20040;-71
2021/11/18 00:10:08;;;;;;;17.42;10.82;;;;;;;;;;5093416;28;20047;-71
2021/11/18 00:12:34;;;;;;;16.73;10.70;;;;;;;;;;5091925;28;20031;-71
2021/11/18 00:15:01;;;;;;;21.30;10.95;;;;;;;;;;5093022;28;20059;-71
2021/11/18 00:17:27;;;;;;;14.45;9.20;;;;;;;;;;5093307;28;20045;-71
2021/11/18 00:19:53;;;;;;;18.85;9.75;;;;;;;;;;5092923;28;20646;-71
2021/11/18 00:22:19;;;;;;;14.27;9.50;;;;;;;;;;5092844;28;20028;-71
2021/11/18 00:24:45;;;;;;;16.23;10.35;;;;;;;;;;5093163;28;20028;-71
2021/11/18 00:27:11;;;;;;;19.63;11.38;;;;;;;;;;5093109;28;20027;-71
2021/11/18 00:29:41;;;;;;;18.50;11.05;;;;;;;;;;5093045;28;20146;-71
2021/11/18 00:32:07;;;;;;;18.10;10.95;;;;;;;;;;5093070;28;20020;-71
2021/11/18 00:34:33;;;;;;;18.70;11.00;;;;;;;;;;5093210;28;20117;-71
2021/11/18 00:36:59;;;;;;;21.30;11.10;;;;;;;;;;5092693;28;20081;-71
2021/11/18 00:39:26;;;;;;;17.85;10.13;;;;;;;;;;5093471;28;20469;-72
2021/11/18 00:41:52;;;;;;;16.50;10.43;;;;;;;;;;5094881;28;20048;-71
2021/11/18 00:44:18;;;;;;;20.60;10.65;;;;;;;;;;5096758;28;20490;-71
2021/11/18 00:46:44;;;;;;;18.95;10.82;;;;;;;;;;5097386;28;20035;-71
2021/11/18 00:49:11;;;;;;;21.58;12.13;;;;;;;;;;5097213;28;20056;-70
2021/11/18 00:51:39;;;;;;;18.67;11.65;;;;;;;;;;5096515;28;20031;-72
2021/11/18 00:54:06;;;;;;;19.45;11.65;;;;;;;;;;5096947;28;20066;-69
2021/11/18 00:56:33;;;;;;;21.90;13.00;;;;;;;;;;5096429;28;20024;-71
2021/11/18 00:58:59;;;;;;;24.00;13.00;;;;;;;;;;5096688;28;20036;-69
2021/11/18 01:01:27;;;;;;;18.80;11.30;;;;;;;;;;5096827;28;20031;-69
2021/11/18 01:03:54;;;;;;;18.60;9.57;;;;;;;;;;5096303;28;20081;-70
2021/11/18 01:06:20;;;;;;;18.73;10.82;;;;;;;;;;5096617;28;20024;-70
2021/11/18 01:08:47;;;;;;;17.15;11.02;;;;;;;;;;5096543;28;20559;-69
2021/11/18 01:11:18;;;;;;;25.75;13.18;;;;;;;;;;5096158;28;20028;-69
2021/11/18 01:13:44;;;;;;;20.10;11.38;;;;;;;;;;5095229;28;20066;-69
2021/11/18 01:16:12;;;;;;;22.17;11.73;;;;;;;;;;5096479;28;20499;-69
2021/11/18 01:18:38;;;;;;;19.58;11.00;;;;;;;;;;5095654;28;20040;-70
2021/11/18 01:21:05;;;;;;;17.65;10.15;;;;;;;;;;5096814;28;20365;-69
2021/11/18 01:23:33;;;;;;;19.35;10.18;;;;;;;;;;5096644;28;20084;-69
2021/11/18 01:25:59;;;;;;;18.48;10.43;;;;;;;;;;5095869;28;20081;-69
2021/11/18 01:28:26;;;;;;;18.45;9.82;;;;;;;;;;5096181;28;20020;-69
2021/11/18 01:30:52;;;;;;;17.35;9.90;;;;;;;;;;5096098;28;20020;-69
2021/11/18 01:33:18;;;;;;;16.65;9.88;;;;;;;;;;5095748;28;20024;-70
2021/11/18 01:35:46;;;;;;;19.00;11.57;;;;;;;;;;5096110;28;20024;-69
2021/11/18 01:38:13;;;;;;;21.58;11.75;;;;;;;;;;5096015;28;20026;-70
2021/11/18 01:40:43;;;;;;;17.38;11.63;;;;;;;;;;5095506;28;20060;-69
2021/11/18 01:43:10;;;;;;;20.50;12.00;;;;;;;;;;5096005;28;20054;-70
2021/11/18 01:45:36;;;;;;;19.77;10.88;;;;;;;;;;5095866;28;20035;-70
2021/11/18 01:48:03;;;;;;;20.10;11.25;;;;;;;;;;5095514;28;20092;-70
2021/11/18 01:50:30;;;;;;;19.63;10.25;;;;;;;;;;5096400;28;20013;-70
2021/11/18 01:52:57;;;;;;;23.33;11.85;;;;;;;;;;5094799;28;20020;-69
2021/11/18 01:55:24;;;;;;;17.80;12.05;;;;;;;;;;5095691;28;20031;-69
2021/11/18 01:57:50;;;;;;;23.95;11.75;;;;;;;;;;5095686;28;20047;-69
2021/11/18 02:00:25;;;;;;;16.92;10.50;;;;;;;;;;5095215;28;20039;-69
2021/11/18 02:02:51;;;;;;;19.98;11.52;;;;;;;;;;5095968;28;20016;-70
2021/11/18 02:05:28;;;;;;;16.23;10.05;;;;;;;;;;5095564;28;20032;-70
2021/11/18 02:07:54;;;;;;;22.52;11.82;;;;;;;;;;5095111;28;20111;-70
2021/11/18 02:10:28;;;;;;;17.92;10.43;;;;;;;;;;5095494;28;20031;-71
2021/11/18 02:12:54;;;;;;;19.08;11.70;;;;;;;;;;5095848;28;20023;-70
2021/11/18 02:15:29;;;;;;;20.92;10.88;;;;;;;;;;5094886;28;20039;-69
2021/11/18 02:17:56;;;;;;;17.30;10.70;;;;;;;;;;5095591;28;20016;-69
2021/11/18 02:20:25;;;;;;;17.52;10.15;;;;;;;;;;5095047;28;20045;-70
2021/11/18 02:22:52;;;;;;;14.95;10.35;;;;;;;;;;5094829;28;20090;-70
2021/11/18 02:25:18;;;;;;;19.02;10.77;;;;;;;;;;5095428;28;20103;-70
2021/11/18 02:27:44;;;;;;;19.95;11.43;;;;;;;;;;5095133;28;20020;-69
2021/11/18 02:30:11;;;;;;;21.95;11.48;;;;;;;;;;5094742;28;20051;-68
2021/11/18 02:32:40;;;;;;;19.10;11.35;;;;;;;;;;5094150;28;20332;-69
2021/11/18 02:35:20;;;;;;;23.02;13.00;;;;;;;;;;5094451;28;20024;-70
2021/11/18 02:37:47;;;;;;;22.45;13.02;;;;;;;;;;5095088;28;20031;-69
2021/11/18 02:40:13;;;;;;;22.20;12.68;;;;;;;;;;5094813;28;20086;-70
2021/11/18 02:42:41;;;;;;;22.08;12.88;;;;;;;;;;5094586;28;20077;-70
2021/11/18 02:45:09;;;;;;;20.85;11.60;;;;;;;;;;5094836;28;20024;-70
2021/11/18 02:47:35;;;;;;;23.08;12.02;;;;;;;;;;5094722;28;20020;-70
2021/11/18 02:50:01;;;;;;;16.85;10.00;;;;;;;;;;5094419;28;20024;-70
2021/11/18 02:52:31;;;;;;;17.67;10.82;;;;;;;;;;5094663;28;20095;-70
2021/11/18 02:54:59;;;;;;;21.45;12.02;;;;;;;;;;5095042;28;20024;-69
2021/11/18 02:57:25;;;;;;;16.73;10.85;;;;;;;;;;5094249;28;20020;-70
2021/11/18 02:59:51;;;;;;;18.60;11.15;;;;;;;;;;5094465;28;20043;-70
2021/11/18 03:02:18;;;;;;;20.20;10.75;;;;;;;;;;5094409;28;20553;-70
2021/11/18 03:04:44;;;;;;;18.90;10.70;;;;;;;;;;5093245;28;20488;-70
2021/11/18 03:07:11;;;;;;;15.93;10.20;;;;;;;;;;5094286;28;20127;-70
2021/11/18 03:09:38;;;;;;;16.42;9.93;;;;;;;;;;5094358;28;20081;-70
2021/11/18 03:12:04;;;;;;;17.55;10.55;;;;;;;;;;5094027;28;20028;-70
2021/11/18 03:14:32;;;;;;;24.08;13.27;;;;;;;;;;5094740;28;20465;-70
2021/11/18 03:16:58;;;;;;;41.92;23.05;;;;;;;;;;5094184;28;20020;-69
2021/11/18 03:19:25;;;;;;;45.25;23.30;;;;;;;;;;5093446;28;20047;-71
2021/11/18 03:21:51;;;;;;;48.83;22.17;;;;;;;;;;5094077;28;20435;-70
2021/11/18 03:24:18;;;;;;;62.97;27.60;;;;;;;;;;5093713;28;20507;-69
2021/11/18 03:26:45;;;;;;;55.05;26.63;;;;;;;;;;5093991;28;20032;-69
2021/11/18 03:29:11;;;;;;;49.97;23.13;;;;;;;;;;5094025;28;20012;-70
2021/11/18 03:31:37;;;;;;;33.58;18.65;;;;;;;;;;5093550;28;20027;-69
2021/11/18 03:34:09;;;;;;;27.08;14.88;;;;;;;;;;5093908;28;20541;-69
2021/11/18 03:36:36;;;;;;;24.05;12.45;;;;;;;;;;5093870;28;20020;-69
2021/11/18 03:39:04;;;;;;;22.20;11.88;;;;;;;;;;5093259;28;20032;-70
2021/11/18 03:41:31;;;;;;;19.42;12.27;;;;;;;;;;5093734;28;20164;-69
2021/11/18 03:43:59;;;;;;;16.63;11.05;;;;;;;;;;5092356;28;20016;-70
2021/11/18 03:46:28;;;;;;;18.35;12.05;;;;;;;;;;5093391;28;20032;-70
2021/11/18 03:48:55;;;;;;;27.15;14.90;;;;;;;;;;5093527;28;20047;-69
2021/11/18 03:51:22;;;;;;;18.70;12.20;;;;;;;;;;5093524;28;20024;-70
2021/11/18 03:53:48;;;;;;;17.25;11.30;;;;;;;;;;5093347;28;20430;-69
2021/11/18 03:56:16;;;;;;;18.25;11.57;;;;;;;;;;5093551;28;20019;-70
2021/11/18 03:58:43;;;;;;;21.35;11.20;;;;;;;;;;5093601;28;20454;-69
2021/11/18 04:01:10;;;;;;;24.70;12.18;;;;;;;;;;5093028;28;20028;-70
2021/11/18 04:03:37;;;;;;;20.40;11.20;;;;;;;;;;5093605;28;20419;-70
2021/11/18 04:06:03;;;;;;;21.15;11.43;;;;;;;;;;5093462;28;20464;-70
2021/11/18 04:08:30;;;;;;;19.15;11.95;;;;;;;;;;5093045;28;20103;-70
2021/11/18 04:10:56;;;;;;;20.08;12.00;;;;;;;;;;5093499;28;20066;-70
2021/11/18 04:13:23;;;;;;;17.40;11.02;;;;;;;;;;5091611;28;20395;-70
2021/11/18 04:15:49;;;;;;;16.38;10.82;;;;;;;;;;5093000;28;20035;-70
2021/11/18 04:18:22;;;;;;;20.40;11.55;;;;;;;;;;5093257;28;20024;-69
2021/11/18 04:20:50;;;;;;;16.65;10.02;;;;;;;;;;5092855;28;20050;-70
2021/11/18 04:23:17;;;;;;;15.02;9.98;;;;;;;;;;5092028;28;20055;-70
2021/11/18 04:25:44;;;;;;;17.88;10.77;;;;;;;;;;5093121;28;20407;-70
2021/11/18 04:28:10;;;;;;;18.63;11.23;;;;;;;;;;5092884;28;20096;-70
2021/11/18 04:30:39;;;;;;;18.88;11.52;;;;;;;;;;5093166;28;20020;-70
2021/11/18 04:33:05;;;;;;;20.30;12.10;;;;;;;;;;5093064;28;20031;-70
2021/11/18 04:35:31;;;;;;;21.77;13.38;;;;;;;;;;5092756;28;20172;-70
2021/11/18 04:37:58;;;;;;;17.73;12.52;;;;;;;;;;5093082;28;20024;-69
2021/11/18 04:40:24;;;;;;;22.45;14.68;;;;;;;;;;5092989;28;20047;-70
2021/11/18 04:42:50;;;;;;;22.77;15.48;;;;;;;;;;5092920;28;20031;-71
2021/11/18 04:45:18;;;;;;;19.90;13.02;;;;;;;;;;5093262;28;20059;-71
2021/11/18 04:47:45;;;;;;;22.27;12.82;;;;;;;;;;5092964;28;20024;-70
2021/11/18 04:50:12;;;;;;;19.35;12.75;;;;;;;;;;5092599;28;20034;-69
2021/11/18 04:52:38;;;;;;;22.10;14.10;;;;;;;;;;5092916;28;20032;-69
2021/11/18 04:55:06;;;;;;;24.92;15.85;;;;;;;;;;5093082;28;20079;-69
2021/11/18 04:57:32;;;;;;;22.60;13.63;;;;;;;;;;5092912;28;20020;-69
2021/11/18 04:59:58;;;;;;;19.83;12.68;;;;;;;;;;5092746;28;20515;-69
2021/11/18 05:02:25;;;;;;;19.48;12.45;;;;;;;;;;5092846;28;20380;-70
2021/11/18 05:04:52;;;;;;;18.88;11.68;;;;;;;;;;5092482;28;20024;-69
2021/11/18 05:07:19;;;;;;;21.45;13.73;;;;;;;;;;5092941;28;20020;-71
2021/11/18 05:09:46;;;;;;;18.48;11.60;;;;;;;;;;5092751;28;20027;-69
2021/11/18 05:12:12;;;;;;;21.20;11.98;;;;;;;;;;5092387;28;20386;-69
2021/11/18 05:14:38;;;;;;;16.50;10.25;;;;;;;;;;5092757;28;20021;-69
2021/11/18 05:17:05;;;;;;;19.55;12.07;;;;;;;;;;5092214;28;20021;-69
2021/11/18 05:19:32;;;;;;;21.10;13.88;;;;;;;;;;5092545;28;20047;-69
2021/11/18 05:21:58;;;;;;;23.30;12.63;;;;;;;;;;5092846;28;20035;-71
2021/11/18 05:24:24;;;;;;;19.08;13.00;;;;;;;;;;5092292;28;20070;-71
2021/11/18 05:26:51;;;;;;;22.35;13.15;;;;;;;;;;5094068;28;20039;-70
2021/11/18 05:29:17;;;;;;;20.48;12.65;;;;;;;;;;5096371;28;20042;-72
2021/11/18 05:31:43;;;;;;;16.42;10.90;;;;;;;;;;5095880;28;20480;-69
2021/11/18 05:34:10;;;;;;;20.55;14.40;;;;;;;;;;5096247;28;20066;-68
2021/11/18 05:36:36;;;;;;;26.90;16.88;;;;;;;;;;5096353;28;20411;-68
2021/11/18 05:39:03;;;;;;;25.42;16.50;;;;;;;;;;5095798;28;20024;-70
2021/11/18 05:41:31;;;;;;;24.25;16.65;;;;;;;;;;5095986;28;20059;-69
2021/11/18 05:44:02;;;;;;;26.95;18.25;;;;;;;;;;5096069;28;20540;-69
2021/11/18 05:46:29;;;;;;;24.33;16.17;;;;;;;;;;5095666;28;20035;-70
2021/11/18 05:48:55;;;;;;;25.83;15.40;;;;;;;;;;5094748;28;20115;-70
2021/11/18 05:51:21;;;;;;;25.48;15.20;;;;;;;;;;5096098;28;20049;-70
2021/11/18 05:53:49;;;;;;;28.73;18.40;;;;;;;;;;5095744;28;20024;-70
2021/11/18 05:56:22;;;;;;;41.83;27.13;;;;;;;;;;5094436;28;20060;-70
2021/11/18 05:58:51;;;;;;;47.75;30.20;;;;;;;;;;5095795;28;20023;-70
2021/11/18 06:01:18;;;;;;;44.97;30.05;;;;;;;;;;5095311;28;20016;-70
2021/11/18 06:03:45;;;;;;;47.70;29.38;;;;;;;;;;5095902;28;20423;-71
2021/11/18 06:06:11;;;;;;;61.63;36.95;;;;;;;;;;5095408;28;20024;-70
2021/11/18 06:08:39;;;;;;;48.85;30.73;;;;;;;;;;5095468;28;20050;-69
2021/11/18 06:11:06;;;;;;;53.05;31.02;;;;;;;;;;5095354;28;20031;-72
2021/11/18 06:13:36;;;;;;;44.25;30.13;;;;;;;;;;5095163;28;20025;-69
2021/11/18 06:16:02;;;;;;;58.88;39.83;;;;;;;;;;5095404;28;20472;-68
2021/11/18 06:18:29;;;;;;;59.55;36.60;;;;;;;;;;5095035;28;20055;-68
2021/11/18 06:20:55;;;;;;;54.15;32.53;;;;;;;;;;5094245;28;20024;-69
2021/11/18 06:23:22;;;;;;;52.17;30.70;;;;;;;;;;5085604;28;20430;-68
2021/11/18 06:25:48;;;;;;;43.10;26.80;;;;;;;;;;5091817;28;20028;-68
2021/11/18 06:28:17;;;;;;;42.58;28.13;;;;;;;;;;5082277;28;20027;-67
2021/11/18 06:30:49;;;;;;;56.35;33.78;;;;;;;;;;5074653;28;20480;-70
2021/11/18 06:33:15;;;;;;;49.22;32.88;;;;;;;;;;5071400;28;20037;-71
2021/11/18 06:35:42;;;;;;;52.17;35.95;;;;;;;;;;5090157;28;20069;-68
2021/11/18 06:38:09;;;;;;;47.25;32.63;;;;;;;;;;5089225;28;20035;-69
2021/11/18 06:40:35;;;;;;;48.42;30.48;;;;;;;;;;5087577;28;20115;-69
2021/11/18 06:43:02;;;;;;;45.55;30.20;;;;;;;;;;5092546;28;20032;-70
2021/11/18 06:45:30;;;;;;;55.17;34.90;;;;;;;;;;5092418;28;20024;-71
2021/11/18 06:47:56;;;;;;;54.67;35.15;;;;;;;;;;5092539;28;20016;-70
2021/11/18 06:50:22;;;;;;;59.00;35.65;;;;;;;;;;5072995;28;20024;-70
2021/11/18 06:52:48;;;;;;;49.47;31.27;;;;;;;;;;5076450;28;20423;-69
2021/11/18 06:55:15;;;;;;;36.85;24.42;;;;;;;;;;5092657;28;20031;-71
2021/11/18 06:57:41;;;;;;;39.47;22.33;;;;;;;;;;5093059;28;20023;-69
2021/11/18 07:00:11;;;;;;;38.17;23.80;;;;;;;;;;5089760;28;20032;-70
2021/11/18 07:02:37;;;;;;;42.47;24.35;;;;;;;;;;5090313;28;20020;-69
2021/11/18 07:05:04;;;;;;;39.53;25.63;;;;;;;;;;5093774;28;20024;-69
2021/11/18 07:07:31;;;;;;;45.17;26.02;;;;;;;;;;5089129;28;20016;-70
2021/11/18 07:10:01;;;;;;;35.25;24.38;;;;;;;;;;5112320;28;20028;-70
2021/11/18 07:12:35;;;;;;;38.05;24.00;;;;;;;;;;5092847;28;20047;-71
2021/11/18 07:15:02;;;;;;;41.38;24.17;;;;;;;;;;5084861;28;20437;-69
2021/11/18 07:17:28;;;;;;;38.92;25.17;;;;;;;;;;5080355;28;20024;-69
2021/11/18 07:19:55;;;;;;;41.40;25.63;;;;;;;;;;5080978;28;20032;-68
2021/11/18 07:22:21;;;;;;;34.65;23.30;;;;;;;;;;5092579;28;20054;-69
2021/11/18 07:24:47;;;;;;;40.83;25.50;;;;;;;;;;5092931;28;20027;-69
2021/11/18 07:27:13;;;;;;;39.17;26.52;;;;;;;;;;5093626;28;20028;-70
2021/11/18 07:29:40;;;;;;;35.42;22.90;;;;;;;;;;5093126;28;20477;-68
2021/11/18 07:32:06;;;;;;;34.08;20.90;;;;;;;;;;5092963;28;20030;-68
2021/11/18 07:34:32;;;;;;;29.77;17.83;;;;;;;;;;5097596;28;20027;-69
2021/11/18 07:36:59;;;;;;;62.47;41.72;;;;;;;;;;5091378;28;20705;-69
2021/11/18 07:39:25;;;;;;;49.10;30.10;;;;;;;;;;5103910;28;20031;-69
2021/11/18 07:41:52;;;;;;;37.13;22.88;;;;;;;;;;5108207;28;20027;-69
2021/11/18 07:44:18;;;;;;;34.80;20.98;;;;;;;;;;5101444;28;20472;-70
2021/11/18 07:46:45;;;;;;;27.20;17.58;;;;;;;;;;5096476;28;20028;-70
2021/11/18 07:49:12;;;;;;;28.52;18.42;;;;;;;;;;5093520;28;20026;-70
2021/11/18 07:51:39;;;;;;;27.92;17.77;;;;;;;;;;5105406;28;20103;-69
2021/11/18 07:54:06;;;;;;;26.35;17.50;;;;;;;;;;5092839;28;20024;-69
2021/11/18 07:56:40;;;;;;;23.55;15.23;;;;;;;;;;5072802;28;20020;-71
2021/11/18 07:59:08;;;;;;;22.88;15.50;;;;;;;;;;5068791;28;20025;-70
2021/11/18 08:01:34;;;;;;;22.52;15.45;;;;;;;;;;5072425;28;20111;-70
2021/11/18 08:04:01;;;;;;;31.92;16.55;;;;;;;;;;5085343;28;20111;-70
2021/11/18 08:06:28;;;;;;;24.48;14.68;;;;;;;;;;5090899;28;20052;-70
2021/11/18 08:08:56;;;;;;;23.35;15.73;;;;;;;;;;5093791;28;20484;-69
2021/11/18 08:11:30;;;;;;;27.67;18.25;;;;;;;;;;5092100;28;20070;-70
2021/11/18 08:13:56;;;;;;;24.48;17.23;;;;;;;;;;5078604;28;20431;-69
2021/11/18 08:17:12;;;;;;;47.15;25.60;;;;;;;;;;5127665;27;20383;-69
2021/11/18 08:19:39;;;;;;;42.20;23.52;;;;;;;;;;5127735;28;20394;-70
2021/11/18 08:23:39;;;;;;;35.13;21.27;;;;;;;;;;5097328;27;20424;-69
2021/11/18 08:26:07;;;;;;;25.65;17.73;;;;;;;;;;5106185;28;20035;-69
2021/11/18 08:30:48;;;;;;;29.93;17.73;;;;;;;;;;5127780;27;20373;-69
2021/11/18 08:33:15;;;;;;;23.33;15.05;;;;;;;;;;5096872;28;20430;-70
2021/11/18 08:39:22;;;;;;;23.58;17.17;;;;;;;;;;5106622;27;20385;-69
2021/11/18 08:42:28;;;;;;;18.75;12.93;;;;;;;;;;5105032;27;20388;-68
2021/11/18 08:45:52;;;;;;;19.92;12.43;;;;;;;;;;5107255;27;20702;-68
2021/11/18 08:48:19;;;;;;;19.05;13.52;;;;;;;;;;5086421;28;20464;-69
2021/11/18 08:50:48;;;;;;;22.73;14.02;;;;;;;;;;5087071;28;20088;-68
2021/11/18 08:54:05;;;;;;;23.05;14.68;;;;;;;;;;5103889;27;20438;-69
2021/11/18 08:56:31;;;;;;;22.85;14.65;;;;;;;;;;5108599;28;20024;-70
2021/11/18 08:58:59;;;;;;;22.13;13.55;;;;;;;;;;5107995;28;20024;-69
2021/11/18 09:02:49;;;;;;;21.00;13.30;;;;;;;;;;5106556;27;20403;-68
2021/11/18 09:05:39;;;;;;;22.58;14.10;;;;;;;;;;5127545;27;20179;-70
2021/11/18 09:08:43;;;;;;;44.30;23.90;;;;;;;;;;5105940;27;20449;-70
2021/11/18 09:13:20;;;;;;;24.15;15.93;;;;;;;;;;5108308;27;20389;-70
2021/11/18 09:15:47;;;;;;;26.35;16.42;;;;;;;;;;5107559;28;20633;-69
2021/11/18 09:18:13;;;;;;;31.40;16.92;;;;;;;;;;5106187;28;20058;-68
2021/11/18 09:20:40;;;;;;;22.88;13.80;;;;;;;;;;5108841;28;20476;-69
2021/11/18 09:23:07;;;;;;;16.92;11.55;;;;;;;;;;5109188;28;20032;-70
2021/11/18 09:25:35;;;;;;;19.42;12.50;;;;;;;;;;5109681;28;20024;-69
2021/11/18 09:28:02;;;;;;;19.88;13.82;;;;;;;;;;5097171;28;20025;-70
2021/11/18 09:30:34;;;;;;;19.83;13.52;;;;;;;;;;5089243;28;20036;-69
2021/11/18 09:33:00;;;;;;;20.45;14.23;;;;;;;;;;5105895;28;20154;-68
2021/11/18 09:35:32;;;;;;;18.65;12.43;;;;;;;;;;5109047;28;20190;-69
2021/11/18 09:40:00;;;;;;;32.95;20.40;;;;;;;;;;5172163;27;20321;-69
2021/11/18 09:44:07;;;;;;;20.23;13.88;;;;;;;;;;5110091;27;20388;-69
2021/11/18 09:46:46;;;;;;;18.75;13.02;;;;;;;;;;5109376;28;20537;-69
2021/11/18 09:49:30;;;;;;;23.25;12.63;;;;;;;;;;5110241;28;20024;-70
2021/11/18 09:57:35;;;;;;;18.27;12.23;;;;;;;;;;5050138;28;20417;-69
2021/11/18 10:01:59;;;;;;;22.67;14.55;;;;;;;;;;5109948;27;20458;-68
2021/11/18 10:04:28;;;;;;;25.85;16.30;;;;;;;;;;5109985;28;20114;-71
2021/11/18 10:15:11;;;;;;;25.40;16.65;;;;;;;;;;5102393;27;20392;-69
2021/11/18 10:17:44;;;;;;;30.23;18.45;;;;;;;;;;5068321;28;20183;-69
2021/11/18 10:21:17;;;;;;;27.55;17.88;;;;;;;;;;5108921;27;20389;-71
2021/11/18 10:25:57;;;;;;;27.80;17.05;;;;;;;;;;5117453;27;20391;-69
2021/11/18 10:29:01;;;;;;;35.15;19.58;;;;;;;;;;5150261;27;20319;-68
2021/11/18 10:31:49;;;;;;;29.85;19.92;;;;;;;;;;5128643;28;20019;-69
2021/11/18 10:34:22;;;;;;;36.40;20.33;;;;;;;;;;5128869;28;20120;-69
2021/11/18 10:37:01;;;;;;;26.95;16.98;;;;;;;;;;5127239;28;20049;-68
2021/11/18 10:39:39;;;;;;;29.70;17.95;;;;;;;;;;5128733;28;20104;-70
2021/11/18 10:45:35;;;;;;;31.40;17.48;;;;;;;;;;4972155;27;3564346;-71
2021/11/18 10:48:15;;;;;;;26.58;17.05;;;;;;;;;;5087851;28;20044;-70
2021/11/18 10:50:41;;;;;;;30.75;17.55;;;;;;;;;;5088290;28;20021;-71
2021/11/18 10:53:16;;;;;;;27.80;17.65;;;;;;;;;;5088325;28;20060;-68
2021/11/18 10:55:47;;;;;;;28.05;17.30;;;;;;;;;;5087180;28;20496;-69
2021/11/18 10:58:26;;;;;;;30.65;18.90;;;;;;;;;;5087480;28;20031;-70
2021/11/18 11:02:47;;;;;;;30.98;18.95;;;;;;;;;;5109377;27;20388;-69
2021/11/18 11:06:44;;;;;;;29.17;16.45;;;;;;;;;;5109791;27;20454;-70
2021/11/18 11:09:10;;;;;;;29.23;18.90;;;;;;;;;;5108677;28;20023;-69
2021/11/18 11:12:52;;;;;;;35.35;19.10;;;;;;;;;;5110035;27;20961;-70
2021/11/18 11:17:00;;;;;;;34.75;19.52;;;;;;;;;;5102539;27;20481;-69
2021/11/18 11:21:38;;;;;;;31.35;19.30;;;;;;;;;;5109366;27;20923;-69
2021/11/18 11:24:10;;;;;;;33.88;19.10;;;;;;;;;;5108985;28;20109;-69
2021/11/18 11:26:37;;;;;;;35.90;19.02;;;;;;;;;;5108354;28;20062;-69
2021/11/18 11:29:06;;;;;;;30.63;18.77;;;;;;;;;;5107314;28;20019;-69
2021/11/18 11:31:51;;;;;;;37.80;20.63;;;;;;;;;;5106848;28;20031;-70
2021/11/18 11:34:44;;;;;;;33.60;22.60;;;;;;;;;;5108803;27;20847;-69
2021/11/18 11:37:11;;;;;;;30.42;20.10;;;;;;;;;;5107998;28;20032;-69
2021/11/18 11:41:02;;;;;;;30.23;18.05;;;;;;;;;;5106958;27;20393;-69
2021/11/18 11:43:43;;;;;;;34.42;19.92;;;;;;;;;;5107382;28;20059;-70
2021/11/18 11:46:23;;;;;;;34.05;20.85;;;;;;;;;;5109742;28;20024;-70
2021/11/18 11:49:25;;;;;;;30.20;18.55;;;;;;;;;;5110177;27;20392;-70
2021/11/18 11:51:56;;;;;;;33.75;18.60;;;;;;;;;;5109922;28;20034;-71
2021/11/18 11:54:40;;;;;;;33.55;20.42;;;;;;;;;;5110633;28;20438;-71
2021/11/18 11:57:09;;;;;;;36.38;20.58;;;;;;;;;;5109769;28;20028;-70
2021/11/18 11:59:49;;;;;;;34.80;20.65;;;;;;;;;;5110011;28;20490;-69
2021/11/18 12:03:53;;;;;;;40.63;22.20;;;;;;;;;;5109254;27;20405;-69
2021/11/18 12:06:25;;;;;;;31.98;19.73;;;;;;;;;;5108844;28;20020;-70
2021/11/18 12:09:00;;;;;;;34.03;20.30;;;;;;;;;;5109562;28;20490;-70
2021/11/18 12:11:39;;;;;;;30.88;18.45;;;;;;;;;;5109847;28;20248;-70
2021/11/18 12:14:23;;;;;;;35.47;20.45;;;;;;;;;;5110367;28;20073;-70
2021/11/18 12:18:36;;;;;;;46.45;26.08;;;;;;;;;;5109019;27;20442;-69
2021/11/18 12:21:02;;;;;;;41.25;23.88;;;;;;;;;;5109889;28;20027;-69
2021/11/18 12:24:28;;;;;;;44.05;22.42;;;;;;;;;;5110883;27;20433;-70
2021/11/18 12:26:56;;;;;;;43.63;27.52;;;;;;;;;;5108211;28;20093;-70
2021/11/18 12:29:37;;;;;;;47.83;25.27;;;;;;;;;;5110069;27;20454;-69
2021/11/18 12:32:09;;;;;;;50.47;26.55;;;;;;;;;;5107741;28;20032;-70
2021/11/18 12:34:49;;;;;;;42.70;23.27;;;;;;;;;;5105606;28;20071;-69
2021/11/18 12:37:59;;;;;;;38.85;20.55;;;;;;;;;;5131037;27;20379;-69
2021/11/18 12:40:34;;;;;;;37.65;20.92;;;;;;;;;;5128498;28;20019;-71
2021/11/18 12:44:09;;;;;;;34.30;20.75;;;;;;;;;;5110834;27;20450;-71
2021/11/18 12:50:36;;;;;;;34.05;21.48;;;;;;;;;;5090172;28;20448;-69
2021/11/18 12:53:11;;;;;;;35.10;19.27;;;;;;;;;;5089609;28;20040;-70
2021/11/18 12:55:43;;;;;;;41.25;20.30;;;;;;;;;;5088400;28;20024;-70
2021/11/18 12:58:25;;;;;;;38.15;21.10;;;;;;;;;;5090161;28;20052;-70
2021/11/18 13:01:00;;;;;;;32.67;18.95;;;;;;;;;;5090561;28;20028;-70
2021/11/18 13:03:44;;;;;;;34.85;20.65;;;;;;;;;;5089366;28;20032;-77
2021/11/18 13:06:11;;;;;;;39.70;21.70;;;;;;;;;;5090098;28;20039;-74
2021/11/18 13:08:37;;;;;;;29.85;16.83;;;;;;;;;;5089778;28;20027;-72
2021/11/18 13:11:22;;;;;;;29.00;18.60;;;;;;;;;;5090201;28;20032;-72
2021/11/18 13:13:48;;;;;;;27.38;17.40;;;;;;;;;;5089988;28;20036;-73
2021/11/18 13:16:30;;;;;;;29.58;18.23;;;;;;;;;;5089752;28;20052;-73
2021/11/18 13:19:06;;;;;;;37.55;21.73;;;;;;;;;;5089316;28;20024;-76
2021/11/18 13:21:51;;;;;;;32.17;17.77;;;;;;;;;;5090087;28;20016;-69
2021/11/18 13:24:31;;;;;;;39.05;22.63;;;;;;;;;;5089547;28;20036;-70
2021/11/18 13:26:57;;;;;;;32.85;20.70;;;;;;;;;;5089980;28;20029;-70
2021/11/18 13:29:28;;;;;;;27.95;17.90;;;;;;;;;;5089275;28;20058;-70
2021/11/18 13:32:09;;;;;;;30.60;18.70;;;;;;;;;;5089844;28;20492;-69
2021/11/18 13:34:53;;;;;;;26.65;17.15;;;;;;;;;;5089815;28;20507;-69
2021/11/18 13:37:22;;;;;;;29.08;17.80;;;;;;;;;;5089360;28;20052;-71
2021/11/18 13:39:54;;;;;;;28.70;18.75;;;;;;;;;;5089647;28;20025;-70
2021/11/18 13:42:24;;;;;;;30.07;18.33;;;;;;;;;;5089756;28;20074;-70
2021/11/18 13:44:54;;;;;;;30.35;18.77;;;;;;;;;;5089299;28;20024;-71
2021/11/18 13:47:31;;;;;;;29.35;17.98;;;;;;;;;;5089577;28;20094;-71
2021/11/18 13:49:59;;;;;;;33.20;20.63;;;;;;;;;;5089087;28;20059;-70
2021/11/18 13:52:38;;;;;;;33.72;19.90;;;;;;;;;;5089171;28;20025;-70
2021/11/18 13:55:20;;;;;;;37.97;23.63;;;;;;;;;;5089309;28;20047;-70
2021/11/18 14:00:25;;;;;;;33.85;22.17;;;;;;;;;;5111351;27;20454;-71
2021/11/18 14:04:32;;;;;;;28.55;18.05;;;;;;;;;;5111290;27;20392;-71
2021/11/18 14:07:27;;;;;;;30.70;18.90;;;;;;;;;;5110651;27;20396;-71
2021/11/18 14:09:56;;;;;;;34.80;21.73;;;;;;;;;;5110662;28;20032;-70
2021/11/18 14:13:56;;;;;;;30.50;18.88;;;;;;;;;;5110896;27;20401;-70
2021/11/18 14:16:25;;;;;;;34.53;20.65;;;;;;;;;;5110089;28;20055;-70
2021/11/18 14:19:10;;;;;;;40.22;20.67;;;;;;;;;;5110212;28;20472;-70
2021/11/18 14:23:19;;;;;;;41.53;22.55;;;;;;;;;;5111203;27;20393;-69
2021/11/18 14:25:59;;;;;;;50.97;27.45;;;;;;;;;;5110238;28;20027;-69
2021/11/18 14:28:37;;;;;;;40.72;22.70;;;;;;;;;;5110922;28;20468;-69
2021/11/18 14:31:04;;;;;;;38.17;22.00;;;;;;;;;;5110713;28;20024;-68
2021/11/18 14:33:44;;;;;;;36.80;22.80;;;;;;;;;;5110448;28;20030;-69
2021/11/18 14:36:13;;;;;;;34.88;22.38;;;;;;;;;;5110611;28;20020;-69
2021/11/18 14:38:50;;;;;;;34.63;20.90;;;;;;;;;;5110756;28;20039;-70
2021/11/18 14:41:27;;;;;;;34.40;21.25;;;;;;;;;;5110374;28;20047;-70
2021/11/18 14:44:04;;;;;;;31.70;19.27;;;;;;;;;;5111289;28;20048;-70
2021/11/18 14:46:33;;;;;;;32.42;19.92;;;;;;;;;;5110275;28;20028;-70
2021/11/18 14:49:19;;;;;;;30.75;19.58;;;;;;;;;;5110517;28;20107;-69
2021/11/18 14:51:47;;;;;;;35.55;20.27;;;;;;;;;;5110419;28;20365;-69
2021/11/18 14:54:30;;;;;;;37.17;21.65;;;;;;;;;;5110347;28;20484;-69
2021/11/18 14:56:56;;;;;;;;;;;;;;;;;;5110843;28;20036;-68
2021/11/18 14:59:23;;;;;;;35.85;22.15;;;;;;;;;;5110525;28;19911;-70
2021/11/18 15:01:54;;;;;;;40.83;27.45;;;;;;;;;;5109980;28;20040;-69
2021/11/18 15:04:20;;;;;;;40.00;24.17;;;;;;;;;;5110383;28;20024;-70
2021/11/18 15:06:47;;;;;;;40.95;25.73;;;;;;;;;;5110351;28;20047;-69
2021/11/18 15:09:17;;;;;;;43.67;29.20;;;;;;;;;;5109789;28;20031;-69
2021/11/18 15:11:44;;;;;;;38.60;27.30;;;;;;;;;;5109892;28;20016;-69
2021/11/18 15:14:11;;;;;;;56.20;33.13;;;;;;;;;;5110443;28;20024;-69
2021/11/18 15:16:38;;;;;;;49.40;31.23;;;;;;;;;;5109763;28;20020;-69
2021/11/18 15:19:05;;;;;;;46.10;24.80;;;;;;;;;;5110063;28;20024;-69
2021/11/18 15:21:32;;;;;;;44.00;26.58;;;;;;;;;;5109564;28;20044;-69
2021/11/18 15:24:03;;;;;;;47.13;29.33;;;;;;;;;;5109524;28;20027;-68
2021/11/18 15:26:31;;;;;;;46.92;28.42;;;;;;;;;;5110094;28;20032;-69
2021/11/18 15:28:58;;;;;;;42.88;25.67;;;;;;;;;;5109289;28;20024;-69
2021/11/18 15:31:26;;;;;;;41.20;23.48;;;;;;;;;;5109304;28;20020;-69
2021/11/18 15:33:52;;;;;;;45.70;28.20;;;;;;;;;;5099531;28;20019;-69
2021/11/18 15:36:19;;;;;;;43.35;26.67;;;;;;;;;;5094740;28;20048;-69
2021/11/18 15:38:47;;;;;;;52.05;29.17;;;;;;;;;;5095907;28;20020;-70